createdAt,value
2018-09-28T00:00:47.911Z,100247.55
2018-09-28T00:03:15.484Z,100244.41
2018-09-28T00:05:43.070Z,100234.63
2018-09-28T00:08:10.772Z,100234.64
2018-09-28T00:10:38.420Z,100236.66
2018-09-28T00:13:06.080Z,100236.05
2018-09-28T00:15:33.747Z,100231.62
2018-09-28T00:18:01.372Z,100233.64
2018-09-28T00:23:01.256Z,100226.48
2018-09-28T00:25:28.901Z,100229.33
2018-09-28T00:27:56.848Z,100224.66
2018-09-28T00:30:24.441Z,100217.39
2018-09-28T00:32:52.149Z,100215.23
2018-09-28T00:35:19.774Z,100216.77
2018-09-28T00:37:47.458Z,100210.19
2018-09-28T00:40:15.083Z,100211.13
2018-09-28T00:42:42.658Z,100214.84
2018-09-28T00:45:10.307Z,100209.69
2018-09-28T00:47:37.954Z,100207.42
2018-09-28T00:50:05.898Z,100209.20
2018-09-28T00:52:33.783Z,100206.91
2018-09-28T00:55:01.430Z,100205.47
2018-09-28T00:57:29.110Z,100200.42
2018-09-28T00:59:56.710Z,100195.89
2018-09-28T01:02:24.371Z,100198.05
2018-09-28T01:04:52.123Z,100193.37
2018-09-28T01:07:19.733Z,100186.69
2018-09-28T01:09:47.352Z,100192.98
2018-09-28T01:12:14.968Z,100192.37
2018-09-28T01:14:42.639Z,100193.45
2018-09-28T01:17:10.263Z,100189.73
2018-09-28T01:19:37.920Z,100183.97
2018-09-28T01:22:05.557Z,100186.58
2018-09-28T01:24:33.324Z,100170.35
2018-09-28T01:27:00.987Z,100172.50
2018-09-28T01:29:28.781Z,100177.27
2018-09-28T01:31:56.411Z,100166.57
2018-09-28T01:34:24.047Z,100171.80
2018-09-28T01:36:51.944Z,100163.93
2018-09-28T01:39:20.021Z,100167.00
2018-09-28T01:41:47.759Z,100164.70
2018-09-28T01:44:15.843Z,100162.69
2018-09-28T01:46:43.475Z,100166.66
2018-09-28T01:49:11.344Z,100168.68
2018-09-28T01:51:39.000Z,100167.24
2018-09-28T01:54:06.850Z,100170.78
2018-09-28T01:56:34.504Z,100165.80
2018-09-28T01:59:02.278Z,100155.80
2018-09-28T02:01:29.964Z,100150.06
2018-09-28T02:03:58.000Z,100151.69
2018-09-28T02:06:25.610Z,100147.73
2018-09-28T02:08:53.260Z,100146.11
2018-09-28T02:11:20.928Z,100152.81
2018-09-28T02:13:48.582Z,100151.77
2018-09-28T02:16:16.227Z,100148.64
2018-09-28T02:18:43.834Z,100148.96
2018-09-28T02:21:11.679Z,100138.23
2018-09-28T02:23:39.310Z,100142.25
2018-09-28T02:26:07.518Z,100152.42
2018-09-28T02:28:35.162Z,100158.06
2018-09-28T02:31:02.911Z,100155.70
2018-09-28T02:33:30.659Z,100149.19
2018-09-28T02:35:58.493Z,100153.70
2018-09-28T02:38:26.092Z,100140.16
2018-09-28T02:40:53.773Z,100140.98
2018-09-28T02:43:21.471Z,100146.02
2018-09-28T02:45:49.059Z,100140.86
2018-09-28T02:48:16.989Z,100132.36
2018-09-28T02:50:44.835Z,100137.50
2018-09-28T02:53:18.637Z,100135.45
2018-09-28T02:55:47.628Z,100127.92
2018-09-28T02:58:15.248Z,100127.66
2018-09-28T03:00:54.088Z,100123.73
2018-09-28T03:03:22.020Z,100128.11
2018-09-28T03:05:49.775Z,100126.91
2018-09-28T03:08:17.413Z,100130.55
2018-09-28T03:10:45.057Z,100132.80
2018-09-28T03:13:12.697Z,100129.81
2018-09-28T03:15:40.664Z,100131.81
2018-09-28T03:18:08.355Z,100130.03
2018-09-28T03:20:36.036Z,100132.28
2018-09-28T03:23:03.679Z,100136.66
2018-09-28T03:25:31.338Z,100134.06
2018-09-28T03:27:59.102Z,100139.25
2018-09-28T03:30:26.787Z,100129.57
2018-09-28T03:32:54.472Z,100133.50
2018-09-28T03:35:22.129Z,100133.97
2018-09-28T03:37:49.803Z,100128.02
2018-09-28T03:40:17.497Z,100133.74
2018-09-28T03:42:45.164Z,100136.59
2018-09-28T03:45:12.821Z,100142.37
2018-09-28T03:47:42.858Z,100145.87
2018-09-28T03:50:10.603Z,100137.54
2018-09-28T03:52:38.190Z,100149.50
2018-09-28T03:55:06.097Z,100143.75
2018-09-28T03:57:34.663Z,100153.41
2018-09-28T04:00:02.441Z,100153.20
2018-09-28T04:02:30.046Z,100157.00
2018-09-28T04:04:57.776Z,100154.31
2018-09-28T04:07:25.465Z,100155.18
2018-09-28T04:09:53.300Z,100158.56
2018-09-28T04:12:21.008Z,100153.76
2018-09-28T04:14:48.620Z,100160.88
2018-09-28T04:17:16.269Z,100152.73
2018-09-28T04:19:43.899Z,100156.91
2018-09-28T04:22:11.857Z,100158.31
2018-09-28T04:24:39.577Z,100158.48
2018-09-28T04:27:07.542Z,100157.70
2018-09-28T04:29:35.196Z,100147.08
2018-09-28T04:32:02.822Z,100154.39
2018-09-28T04:34:30.506Z,100159.44
2018-09-28T04:36:58.186Z,100153.07
2018-09-28T04:39:25.810Z,100154.22
2018-09-28T04:41:53.501Z,100156.75
2018-09-28T04:44:22.178Z,100159.00
2018-09-28T04:46:49.834Z,100161.20
2018-09-28T04:49:17.562Z,100167.05
2018-09-28T04:51:45.126Z,100164.09
2018-09-28T04:54:12.858Z,100162.74
2018-09-28T04:56:40.523Z,100166.76
2018-09-28T04:59:08.351Z,100165.73
2018-09-28T05:01:36.170Z,100173.59
2018-09-28T05:04:03.779Z,100174.56
2018-09-28T05:06:31.452Z,100180.21
2018-09-28T05:08:59.297Z,100177.28
2018-09-28T05:11:26.925Z,100177.05
2018-09-28T05:13:54.556Z,100186.63
2018-09-28T05:16:22.194Z,100192.92
2018-09-28T05:18:49.833Z,100198.20
2018-09-28T05:21:17.449Z,100189.77
2018-09-28T05:23:45.127Z,100191.76
2018-09-28T05:26:12.819Z,100199.55
2018-09-28T05:28:40.624Z,100200.86
2018-09-28T05:31:08.459Z,100199.95
2018-09-28T05:33:36.115Z,100208.30
2018-09-28T05:36:05.063Z,100210.51
2018-09-28T05:38:32.833Z,100207.30
2018-09-28T05:41:00.685Z,100207.04
2018-09-28T05:43:28.352Z,100206.66
2018-09-28T05:45:55.988Z,100197.41
2018-09-28T05:48:23.659Z,100204.33
2018-09-28T05:50:51.261Z,100204.61
2018-09-28T05:53:18.907Z,100207.40
2018-09-28T05:55:46.738Z,100217.57
2018-09-28T05:58:20.169Z,100212.40
2018-09-28T06:00:53.602Z,100218.98
2018-09-28T06:03:21.863Z,100224.27
2018-09-28T06:05:55.289Z,100226.20
2018-09-28T06:08:22.901Z,100222.02
2018-09-28T06:10:50.612Z,100209.03
2018-09-28T06:13:19.416Z,100219.20
2018-09-28T06:15:47.136Z,100224.01
2018-09-28T06:18:14.821Z,100222.31
2018-09-28T06:20:42.502Z,100221.59
2018-09-28T06:23:10.258Z,100225.70
2018-09-28T06:25:37.879Z,100227.02
2018-09-28T06:28:05.607Z,100233.99
2018-09-28T06:30:33.294Z,100231.64
2018-09-28T06:33:00.972Z,100234.01
2018-09-28T06:35:28.588Z,100237.69
2018-09-28T06:37:56.226Z,100243.34
2018-09-28T06:40:23.944Z,100251.89
2018-09-28T06:42:51.549Z,100249.20
2018-09-28T06:45:19.216Z,100247.95
2018-09-28T06:47:47.818Z,100251.55
2018-09-28T06:50:15.501Z,100254.55
2018-09-28T06:52:43.202Z,100253.13
2018-09-28T06:55:10.888Z,100249.89
2018-09-28T06:57:38.588Z,100254.46
2018-09-28T07:00:07.137Z,100260.86
2018-09-28T07:02:34.774Z,100263.47
2018-09-28T07:05:02.590Z,100264.98
2018-09-28T07:07:30.298Z,100267.80
2018-09-28T07:09:58.120Z,100273.72
2018-09-28T07:12:25.745Z,100273.94
2018-09-28T07:14:53.437Z,100267.63
2018-09-28T07:17:21.081Z,100275.09
2018-09-28T07:19:48.806Z,100277.50
2018-09-28T07:22:16.481Z,100273.61
2018-09-28T07:24:44.098Z,100281.11
2018-09-28T07:27:11.781Z,100277.14
2018-09-28T07:29:39.412Z,100286.94
2018-09-28T07:32:07.119Z,100288.34
2018-09-28T07:34:34.769Z,100291.99
2018-09-28T07:37:02.562Z,100289.31
2018-09-28T07:39:30.027Z,100301.23
2018-09-28T07:41:57.818Z,100291.67
2018-09-28T07:44:25.312Z,100299.06
2018-09-28T07:46:52.974Z,100303.24
2018-09-28T07:49:20.615Z,100301.95
2018-09-28T07:51:48.242Z,100308.30
2018-09-28T07:54:15.965Z,100310.00
2018-09-28T07:56:43.795Z,100316.76
2018-09-28T07:59:11.471Z,100312.70
2018-09-28T08:01:39.048Z,100314.59
2018-09-28T08:04:07.147Z,100326.57
2018-09-28T08:06:34.792Z,100321.82
2018-09-28T08:09:03.480Z,100324.06
2018-09-28T08:11:31.135Z,100329.70
2018-09-28T08:13:58.760Z,100337.83
2018-09-28T08:16:26.500Z,100331.14
2018-09-28T08:18:54.077Z,100346.20
2018-09-28T08:21:21.756Z,100341.84
2018-09-28T08:23:49.762Z,100349.20
2018-09-28T08:26:19.274Z,100341.59
2018-09-28T08:28:46.903Z,100350.45
2018-09-28T08:31:14.510Z,100354.41
2018-09-28T08:33:42.156Z,100355.17
2018-09-28T08:36:09.999Z,100356.80
2018-09-28T08:38:37.618Z,100358.63
2018-09-28T08:41:05.779Z,100359.98
2018-09-28T08:43:33.431Z,100371.31
2018-09-28T08:46:01.102Z,100364.79
2018-09-28T08:48:28.964Z,100373.27
2018-09-28T08:50:56.634Z,100372.52
2018-09-28T08:53:24.297Z,100373.44
2018-09-28T08:55:52.019Z,100369.33
2018-09-28T08:58:19.741Z,100375.30
2018-09-28T09:00:47.486Z,100378.36
2018-09-28T09:03:15.198Z,100380.76
2018-09-28T09:05:42.919Z,100384.22
2018-09-28T09:08:10.813Z,100381.67
2018-09-28T09:10:38.493Z,100383.52
2018-09-28T09:13:06.211Z,100387.11
2018-09-28T09:15:33.843Z,100392.55
2018-09-28T09:18:01.605Z,100401.31
2018-09-28T09:20:29.261Z,100388.98
2018-09-28T09:22:56.845Z,100395.53
2018-09-28T09:25:24.507Z,100399.76
2018-09-28T09:27:52.294Z,100397.55
2018-09-28T09:30:20.354Z,100399.10
2018-09-28T09:32:47.986Z,100404.13
2018-09-28T09:35:15.843Z,100404.19
2018-09-28T09:37:43.406Z,100397.94
2018-09-28T09:40:11.052Z,100408.73
2018-09-28T09:42:38.827Z,100408.71
2018-09-28T09:45:06.512Z,100413.80
2018-09-28T09:47:34.236Z,100414.33
2018-09-28T09:50:01.948Z,100427.25
2018-09-28T09:52:29.651Z,100425.52
2018-09-28T09:54:57.330Z,100436.87
2018-09-28T09:57:25.108Z,100431.83
2018-09-28T09:59:52.770Z,100439.17
2018-09-28T10:02:26.304Z,100438.56
2018-09-28T10:04:53.959Z,100447.97
2018-09-28T10:07:21.630Z,100439.52
2018-09-28T10:09:49.492Z,100454.81
2018-09-28T10:12:17.056Z,100444.20
2018-09-28T10:14:44.713Z,100443.14
2018-09-28T10:17:12.339Z,100445.86
2018-09-28T10:19:40.587Z,100443.77
2018-09-28T10:22:08.290Z,100443.66
2018-09-28T10:24:35.891Z,100448.45
2018-09-28T10:27:03.668Z,100449.27
2018-09-28T10:29:31.335Z,100444.88
2018-09-28T10:31:58.990Z,100460.84
2018-09-28T10:34:26.668Z,100452.59
2018-09-28T10:36:54.370Z,100454.20
2018-09-28T10:39:22.068Z,100452.66
2018-09-28T10:41:49.670Z,100454.81
2018-09-28T10:44:17.310Z,100449.70
2018-09-28T10:46:45.053Z,100461.19
2018-09-28T10:49:12.683Z,100456.14
2018-09-28T10:51:40.395Z,100463.42
2018-09-28T10:54:08.026Z,100461.09
2018-09-28T10:56:35.784Z,100466.68
2018-09-28T10:59:15.211Z,100470.19
2018-09-28T11:01:42.931Z,100464.95
2018-09-28T11:04:10.640Z,100471.60
2018-09-28T11:06:38.317Z,100461.70
2018-09-28T11:09:08.726Z,100466.70
2018-09-28T11:11:36.386Z,100458.56
2018-09-28T11:14:04.055Z,100459.27
2018-09-28T11:16:31.718Z,100465.56
2018-09-28T11:18:59.475Z,100465.00
2018-09-28T11:21:27.244Z,100463.17
2018-09-28T11:23:54.835Z,100464.73
2018-09-28T11:26:22.473Z,100463.17
2018-09-28T11:28:50.124Z,100474.66
2018-09-28T11:31:17.902Z,100473.30
2018-09-28T11:33:45.635Z,100471.50
2018-09-28T11:36:13.410Z,100468.34
2018-09-28T11:38:41.083Z,100472.82
2018-09-28T11:41:08.768Z,100467.30
2018-09-28T11:43:36.466Z,100475.19
2018-09-28T11:46:04.194Z,100472.70
2018-09-28T11:48:31.913Z,100473.73
2018-09-28T11:50:59.720Z,100474.63
2018-09-28T11:53:27.440Z,100476.98
2018-09-28T11:55:55.112Z,100469.29
2018-09-28T11:58:22.804Z,100479.20
2018-09-28T12:00:50.708Z,100478.66
2018-09-28T12:03:18.412Z,100480.00
2018-09-28T12:05:46.076Z,100480.56
2018-09-28T12:08:13.767Z,100487.23
2018-09-28T12:10:41.551Z,100484.43
2018-09-28T12:13:09.299Z,100481.69
2018-09-28T12:15:37.020Z,100484.66
2018-09-28T12:18:04.949Z,100493.19
2018-09-28T12:20:32.590Z,100482.84
2018-09-28T12:23:00.213Z,100475.99
2018-09-28T12:25:27.853Z,100477.66
2018-09-28T12:27:55.506Z,100473.61
2018-09-28T12:30:32.953Z,100467.97
2018-09-28T12:33:00.551Z,100469.14
2018-09-28T12:35:28.248Z,100462.58
2018-09-28T12:37:55.903Z,100466.66
2018-09-28T12:40:23.577Z,100466.70
2018-09-28T12:42:51.301Z,100463.22
2018-09-28T12:45:18.971Z,100475.22
2018-09-28T12:47:46.623Z,100464.61
2018-09-28T12:50:14.402Z,100464.25
2018-09-28T12:52:42.042Z,100468.13
2018-09-28T12:55:09.818Z,100468.03
2018-09-28T12:57:37.531Z,100474.20
2018-09-28T13:00:05.445Z,100470.83
2018-09-28T13:02:33.156Z,100468.30
2018-09-28T13:05:00.788Z,100471.62
2018-09-28T13:07:28.471Z,100461.70
2018-09-28T13:09:56.232Z,100474.11
2018-09-28T13:12:23.905Z,100476.64
2018-09-28T13:14:51.626Z,100474.39
2018-09-28T13:17:19.324Z,100471.20
2018-09-28T13:19:46.922Z,100477.19
2018-09-28T13:22:14.664Z,100481.28
2018-09-28T13:24:42.448Z,100478.80
2018-09-28T13:27:10.114Z,100479.23
2018-09-28T13:29:37.769Z,100475.03
2018-09-28T13:32:05.405Z,100471.78
2018-09-28T13:34:33.021Z,100472.81
2018-09-28T13:37:00.688Z,100466.56
2018-09-28T13:39:28.329Z,100464.07
2018-09-28T13:41:55.925Z,100463.22
2018-09-28T13:44:23.614Z,100465.05
2018-09-28T13:46:51.297Z,100467.22
2018-09-28T13:49:19.193Z,100476.12
2018-09-28T13:51:46.848Z,100468.70
2018-09-28T13:54:14.736Z,100467.95
2018-09-28T13:56:42.537Z,100470.66
2018-09-28T13:59:10.166Z,100466.00
2018-09-28T14:01:37.815Z,100466.91
2018-09-28T14:04:05.575Z,100471.01
2018-09-28T14:06:33.335Z,100476.77
2018-09-28T14:09:00.997Z,100487.07
2018-09-28T14:11:28.666Z,100477.37
2018-09-28T14:13:57.006Z,100473.16
2018-09-28T14:16:24.699Z,100478.34
2018-09-28T14:18:52.352Z,100484.73
2018-09-28T14:21:20.091Z,100483.64
2018-09-28T14:23:48.033Z,100484.27
2018-09-28T14:26:15.979Z,100479.45
2018-09-28T14:28:43.761Z,100477.47
2018-09-28T14:31:11.474Z,100474.63
2018-09-28T14:33:39.211Z,100474.22
2018-09-28T14:36:07.034Z,100469.02
2018-09-28T14:38:34.783Z,100477.92
2018-09-28T14:41:02.599Z,100475.49
2018-09-28T14:43:30.245Z,100476.60
2018-09-28T14:45:58.058Z,100487.70
2018-09-28T14:48:25.863Z,100487.44
2018-09-28T14:50:53.496Z,100484.41
2018-09-28T14:53:21.197Z,100480.17
2018-09-28T14:55:48.917Z,100487.47
2018-09-28T14:58:16.567Z,100486.29
2018-09-28T15:00:44.280Z,100494.16
2018-09-28T15:03:12.011Z,100493.97
2018-09-28T15:05:39.870Z,100501.95
2018-09-28T15:08:07.587Z,100488.06
2018-09-28T15:10:35.347Z,100491.77
2018-09-28T15:13:03.033Z,100499.62
2018-09-28T15:15:30.911Z,100505.84
2018-09-28T15:17:58.634Z,100497.53
2018-09-28T15:20:26.393Z,100500.45
2018-09-28T15:22:54.097Z,100505.66
2018-09-28T15:25:21.867Z,100514.18
2018-09-28T15:27:49.590Z,100512.16
2018-09-28T15:30:17.436Z,100517.90
2018-09-28T15:32:45.213Z,100517.31
2018-09-28T15:35:13.153Z,100518.09
2018-09-28T15:37:40.907Z,100516.31
2018-09-28T15:40:08.652Z,100512.01
2018-09-28T15:42:36.343Z,100516.05
2018-09-28T15:45:04.251Z,100509.73
2018-09-28T15:47:32.044Z,100516.25
2018-09-28T15:49:59.794Z,100516.89
2018-09-28T15:52:27.518Z,100525.69
2018-09-28T15:54:55.320Z,100525.47
2018-09-28T15:57:23.050Z,100532.13
2018-09-28T15:59:50.744Z,100530.32
2018-09-28T16:02:19.288Z,100533.53
2018-09-28T16:04:46.970Z,100536.66
2018-09-28T16:07:14.658Z,100538.85
2018-09-28T16:09:42.314Z,100546.73
2018-09-28T16:12:10.244Z,100545.61
2018-09-28T16:14:37.935Z,100546.70
2018-09-28T16:17:05.799Z,100552.34
2018-09-28T16:19:33.489Z,100549.14
2018-09-28T16:22:01.320Z,100550.58
2018-09-28T16:24:28.942Z,100555.86
2018-09-28T16:26:56.641Z,100554.06
2018-09-28T16:29:24.331Z,100558.52
2018-09-28T16:31:52.034Z,100565.84
2018-09-28T16:34:20.058Z,100566.53
2018-09-28T16:36:47.766Z,100574.09
2018-09-28T16:39:15.499Z,100575.91
2018-09-28T16:41:43.171Z,100575.45
2018-09-28T16:44:10.789Z,100582.69
2018-09-28T16:46:38.512Z,100581.08
2018-09-28T16:49:13.011Z,100583.20
2018-09-28T16:51:40.776Z,100585.99
2018-09-28T16:54:08.540Z,100596.41
2018-09-28T16:56:36.209Z,100602.19
2018-09-28T16:59:03.978Z,100596.55
2018-09-28T17:01:31.770Z,100597.41
2018-09-28T17:03:59.435Z,100603.28
2018-09-28T17:06:27.098Z,100602.79
2018-09-28T17:08:54.785Z,100606.38
2018-09-28T17:11:22.508Z,100606.38
2018-09-28T17:13:50.250Z,100609.05
2018-09-28T17:16:17.940Z,100611.32
2018-09-28T17:18:45.576Z,100612.88
2018-09-28T17:21:13.254Z,100610.61
2018-09-28T17:23:40.897Z,100621.16
2018-09-28T17:26:08.570Z,100635.66
2018-09-28T17:28:36.327Z,100621.44
2018-09-28T17:31:04.016Z,100632.44
2018-09-28T17:33:32.044Z,100625.30
2018-09-28T17:35:59.830Z,100637.16
2018-09-28T17:38:27.501Z,100647.42
2018-09-28T17:40:55.200Z,100647.66
2018-09-28T17:43:22.938Z,100647.77
2018-09-28T17:45:50.653Z,100642.34
2018-09-28T17:48:18.354Z,100653.48
2018-09-28T17:50:46.031Z,100654.72
2018-09-28T17:53:13.854Z,100656.88
2018-09-28T17:55:41.858Z,100665.05
2018-09-28T17:58:09.688Z,100670.59
2018-09-28T18:00:37.415Z,100685.67
2018-09-28T18:03:05.549Z,100687.36
2018-09-28T18:05:33.246Z,100690.77
2018-09-28T18:08:00.997Z,100697.94
2018-09-28T18:10:28.817Z,100702.80
2018-09-28T18:12:56.661Z,100709.64
2018-09-28T18:15:24.323Z,100716.02
2018-09-28T18:17:52.140Z,100725.84
2018-09-28T18:20:19.972Z,100728.34
2018-09-28T18:22:47.583Z,100731.41
2018-09-28T18:25:15.344Z,100727.59
2018-09-28T18:27:43.158Z,100728.23
2018-09-28T18:30:10.838Z,100738.21
2018-09-28T18:32:38.461Z,100745.20
2018-09-28T18:35:06.511Z,100740.74
2018-09-28T18:37:34.209Z,100739.70
2018-09-28T18:40:02.058Z,100750.30
2018-09-28T18:42:29.960Z,100751.25
2018-09-28T18:44:57.678Z,100750.59
2018-09-28T18:47:25.446Z,100757.20
2018-09-28T18:49:53.097Z,100760.50
2018-09-28T18:52:20.885Z,100761.90
2018-09-28T18:54:48.547Z,100770.97
2018-09-28T18:57:16.236Z,100779.14
2018-09-28T18:59:44.185Z,100776.92
2018-09-28T19:02:11.852Z,100772.36
2018-09-28T19:04:39.504Z,100772.41
2018-09-28T19:07:07.153Z,100773.97
2018-09-28T19:09:34.809Z,100773.23
2018-09-28T19:12:02.541Z,100777.52
2018-09-28T19:14:30.285Z,100779.05
2018-09-28T19:16:58.109Z,100779.42
2018-09-28T19:19:25.883Z,100777.52
2018-09-28T19:21:53.540Z,100785.38
2018-09-28T19:24:21.301Z,100788.03
2018-09-28T19:26:48.962Z,100792.69
2018-09-28T19:29:16.641Z,100798.40
2018-09-28T19:31:44.471Z,100804.39
2018-09-28T19:34:12.198Z,100802.56
2018-09-28T19:36:39.914Z,100802.73
2018-09-28T19:39:14.213Z,100810.56
2018-09-28T19:41:42.115Z,100807.06
2018-09-28T19:44:09.951Z,100806.53
2018-09-28T19:46:37.634Z,100815.25
2018-09-28T19:49:05.489Z,100808.11
2018-09-28T19:51:33.243Z,100817.08
2018-09-28T19:54:00.975Z,100818.88
2018-09-28T19:56:28.674Z,100830.13
2018-09-28T19:58:56.551Z,100831.44
2018-09-28T20:01:24.641Z,100829.64
2018-09-28T20:03:52.415Z,100839.05
2018-09-28T20:06:20.243Z,100835.04
2018-09-28T20:08:47.984Z,100845.08
2018-09-28T20:11:15.690Z,100841.63
2018-09-28T20:13:43.440Z,100851.73
2018-09-28T20:16:11.058Z,100855.29
2018-09-28T20:18:38.812Z,100853.02
2018-09-28T20:21:06.586Z,100856.61
2018-09-28T20:23:34.352Z,100869.98
2018-09-28T20:26:02.001Z,100863.89
2018-09-28T20:28:29.699Z,100868.97
2018-09-28T20:30:57.368Z,100873.92
2018-09-28T20:33:25.024Z,100865.03
2018-09-28T20:35:52.725Z,100867.48
2018-09-28T20:38:20.429Z,100870.83
2018-09-28T20:40:48.113Z,100868.41
2018-09-28T20:43:15.706Z,100873.91
2018-09-28T20:45:43.419Z,100868.22
2018-09-28T20:48:11.134Z,100875.98
2018-09-28T20:50:38.802Z,100881.04
2018-09-28T20:53:06.580Z,100884.86
2018-09-28T20:55:34.342Z,100887.39
2018-09-28T20:58:02.042Z,100895.19
2018-09-28T21:00:29.711Z,100892.14
2018-09-28T21:02:57.331Z,100901.41
2018-09-28T21:05:24.941Z,100902.25
2018-09-28T21:10:27.023Z,100896.03
2018-09-28T21:12:54.641Z,100901.61
2018-09-28T21:15:22.242Z,100901.49
2018-09-28T21:17:49.874Z,100902.20
2018-09-28T21:20:17.505Z,100900.92
2018-09-28T21:22:45.130Z,100906.05
2018-09-28T21:25:12.766Z,100902.58
2018-09-28T21:27:40.378Z,100906.77
2018-09-28T21:30:08.018Z,100912.00
2018-09-28T21:32:35.646Z,100912.58
2018-09-28T21:35:03.308Z,100918.20
2018-09-28T21:37:30.988Z,100910.20
2018-09-28T21:39:58.693Z,100910.79
2018-09-28T21:42:26.418Z,100907.77
2018-09-28T21:44:54.038Z,100911.89
2018-09-28T21:47:21.712Z,100919.91
2018-09-28T21:49:49.390Z,100917.38
2018-09-28T21:52:17.126Z,100922.72
2018-09-28T21:54:44.785Z,100925.03
2018-09-28T21:57:12.473Z,100928.13
2018-09-28T21:59:40.249Z,100927.99
2018-09-28T22:02:07.932Z,100933.03
2018-09-28T22:04:35.673Z,100935.41
2018-09-28T22:07:03.338Z,100931.86
2018-09-28T22:09:30.991Z,100931.39
2018-09-28T22:11:58.617Z,100933.51
2018-09-28T22:14:26.255Z,100931.81
2018-09-28T22:16:53.964Z,100930.23
2018-09-28T22:19:21.597Z,100931.03
2018-09-28T22:21:49.243Z,100928.19
2018-09-28T22:24:17.064Z,100930.23
2018-09-28T22:26:44.690Z,100929.86
2018-09-28T22:29:12.425Z,100938.40
2018-09-28T22:31:40.078Z,100936.04
2018-09-28T22:34:07.738Z,100926.75
2018-09-28T22:36:35.464Z,100929.13
2018-09-28T22:39:04.954Z,100933.06
2018-09-28T22:41:32.588Z,100931.02
2018-09-28T22:44:00.226Z,100933.91
2018-09-28T22:46:27.799Z,100940.90
2018-09-28T22:48:55.428Z,100936.52
2018-09-28T22:51:23.062Z,100944.91
2018-09-28T22:53:50.630Z,100940.00
2018-09-28T22:56:18.296Z,100949.40
2018-09-28T22:58:45.946Z,100957.95
2018-09-28T23:01:13.718Z,100953.92
2018-09-28T23:03:41.346Z,100952.41
2018-09-28T23:06:09.003Z,100946.50
2018-09-28T23:08:36.681Z,100951.66
2018-09-28T23:11:04.364Z,100957.06
2018-09-28T23:13:31.989Z,100956.74
2018-09-28T23:15:59.637Z,100966.76
2018-09-28T23:18:27.308Z,100968.92
2018-09-28T23:20:54.953Z,100966.21
2018-09-28T23:23:22.584Z,100963.91
2018-09-28T23:25:50.217Z,100969.90
2018-09-28T23:28:17.971Z,100974.30
2018-09-28T23:30:45.595Z,100971.19
2018-09-28T23:33:13.171Z,100971.23
2018-09-28T23:35:40.723Z,100984.66
2018-09-28T23:38:08.288Z,100982.04
2018-09-28T23:40:35.952Z,100986.87
2018-09-28T23:43:03.579Z,100986.08
2018-09-28T23:45:31.197Z,100994.02
2018-09-28T23:47:58.877Z,100996.52
2018-09-28T23:50:26.563Z,100996.64
2018-09-28T23:52:54.274Z,100992.83
2018-09-28T23:55:21.973Z,100997.20
2018-09-28T23:57:49.591Z,100990.95
